createdAt,value
2022-10-06T00:00:47.523Z,13.60
2022-10-06T00:05:47.531Z,13.48
2022-10-06T00:10:47.323Z,13.52
2022-10-06T00:15:47.347Z,13.52
2022-10-06T00:20:47.394Z,13.41
2022-10-06T00:25:47.173Z,13.44
2022-10-06T00:30:47.150Z,13.45
2022-10-06T00:35:47.004Z,13.30
2022-10-06T00:40:46.988Z,13.28
2022-10-06T00:45:47.070Z,13.33
2022-10-06T00:50:46.978Z,13.32
2022-10-06T00:55:46.789Z,13.22
2022-10-06T01:00:47.834Z,13.20
2022-10-06T01:05:46.828Z,13.19
2022-10-06T01:10:46.811Z,13.11
2022-10-06T01:15:46.609Z,13.12
2022-10-06T01:20:46.510Z,13.10
2022-10-06T01:25:46.612Z,13.01
2022-10-06T01:30:46.431Z,12.93
2022-10-06T01:35:46.374Z,12.96
2022-10-06T01:40:46.339Z,13.01
2022-10-06T01:45:46.276Z,13.03
2022-10-06T01:50:46.225Z,13.07
2022-10-06T01:55:46.182Z,13.05
2022-10-06T02:00:46.172Z,12.90
2022-10-06T02:05:46.008Z,12.87
2022-10-06T02:10:45.998Z,12.93
2022-10-06T02:15:45.912Z,12.87
2022-10-06T02:20:45.864Z,12.86
2022-10-06T02:25:45.815Z,12.85
2022-10-06T02:30:45.723Z,12.74
2022-10-06T02:35:45.680Z,12.68
2022-10-06T02:40:45.602Z,12.74
2022-10-06T02:45:45.584Z,12.77
2022-10-06T02:50:45.534Z,12.68
2022-10-06T02:55:45.655Z,12.68
2022-10-06T03:00:45.504Z,12.67
2022-10-06T03:05:46.394Z,12.71
2022-10-06T03:10:45.378Z,12.72
2022-10-06T03:15:45.367Z,12.74
2022-10-06T03:20:45.280Z,12.68
2022-10-06T03:25:45.167Z,12.65
2022-10-06T03:30:53.950Z,12.72
2022-10-06T03:35:44.969Z,12.64
2022-10-06T03:40:44.954Z,12.47
2022-10-06T03:45:44.878Z,12.41
2022-10-06T03:50:44.830Z,12.47
2022-10-06T03:55:44.847Z,12.46
2022-10-06T04:00:44.829Z,12.41
2022-10-06T04:05:44.688Z,12.35
2022-10-06T04:10:44.570Z,12.35
2022-10-06T04:15:44.524Z,12.34
2022-10-06T04:20:44.459Z,12.35
2022-10-06T04:25:44.439Z,12.28
2022-10-06T04:30:44.334Z,12.31
2022-10-06T04:35:44.305Z,12.23
2022-10-06T04:40:44.246Z,12.16
2022-10-06T04:45:44.198Z,12.10
2022-10-06T04:50:44.217Z,12.01
2022-10-06T04:55:44.133Z,11.98
2022-10-06T05:00:44.149Z,11.91
2022-10-06T05:05:44.011Z,11.80
2022-10-06T05:10:43.893Z,11.80
2022-10-06T05:15:43.838Z,11.72
2022-10-06T05:20:43.791Z,11.67
2022-10-06T05:25:43.782Z,11.60
2022-10-06T05:30:43.683Z,11.49
2022-10-06T05:35:43.695Z,11.40
2022-10-06T05:40:43.718Z,11.36
2022-10-06T05:45:43.636Z,11.29
2022-10-06T05:50:45.449Z,11.28
2022-10-06T05:55:43.400Z,11.22
2022-10-06T06:00:43.375Z,11.22
2022-10-06T06:05:43.287Z,11.19
2022-10-06T06:10:43.230Z,11.19
2022-10-06T06:15:43.222Z,11.24
2022-10-06T06:20:43.281Z,11.18
2022-10-06T06:25:43.196Z,11.15
2022-10-06T06:30:43.107Z,11.17
2022-10-06T06:35:43.032Z,11.27
2022-10-06T06:40:46.530Z,11.29
2022-10-06T06:45:42.942Z,11.40
2022-10-06T06:50:42.957Z,11.49
2022-10-06T06:55:42.885Z,11.58
2022-10-06T07:00:43.901Z,11.61
2022-10-06T07:05:42.719Z,11.73
2022-10-06T07:10:42.728Z,11.75
2022-10-06T07:15:42.744Z,11.83
2022-10-06T07:20:42.617Z,11.98
2022-10-06T07:25:43.592Z,12.10
2022-10-06T07:30:43.570Z,12.23
2022-10-06T07:35:44.389Z,12.34
2022-10-06T07:40:50.643Z,12.50
2022-10-06T07:45:43.368Z,12.57
2022-10-06T07:50:42.243Z,12.86
2022-10-06T07:55:42.154Z,13.05
2022-10-06T08:00:42.066Z,13.28
2022-10-06T08:05:42.003Z,13.54
2022-10-06T08:10:41.993Z,13.85
2022-10-06T08:15:42.006Z,14.10
2022-10-06T08:20:41.891Z,14.29
2022-10-06T08:25:41.739Z,14.43
2022-10-06T08:30:41.713Z,14.64
2022-10-06T08:35:41.766Z,14.99
2022-10-06T08:40:41.717Z,15.29
2022-10-06T08:45:41.697Z,15.43
2022-10-06T08:50:41.573Z,15.68
2022-10-06T08:55:41.527Z,15.84
2022-10-06T09:00:41.360Z,15.71
2022-10-06T09:05:41.364Z,15.71
2022-10-06T09:10:41.357Z,15.84
2022-10-06T09:15:41.267Z,16.07
2022-10-06T09:20:41.160Z,15.92
2022-10-06T09:25:41.117Z,16.11
2022-10-06T09:30:54.566Z,16.46
2022-10-06T09:35:41.933Z,16.79
2022-10-06T09:40:40.913Z,17.11
2022-10-06T09:45:40.880Z,17.34
2022-10-06T09:50:40.785Z,17.81
2022-10-06T09:55:41.342Z,17.43
2022-10-06T10:00:40.873Z,17.56
2022-10-06T10:05:40.750Z,17.31
2022-10-06T10:10:40.569Z,17.70
2022-10-06T10:15:40.653Z,17.84
2022-10-06T10:20:41.156Z,18.03
2022-10-06T10:25:40.430Z,17.84
2022-10-06T10:30:40.463Z,17.43
2022-10-06T10:35:40.914Z,18.15
2022-10-06T10:40:40.462Z,18.51
2022-10-06T10:45:40.236Z,18.27
2022-10-06T10:50:41.422Z,18.25
2022-10-06T10:55:40.278Z,18.20
2022-10-06T11:00:40.301Z,18.12
2022-10-06T11:05:40.090Z,17.66
2022-10-06T11:10:39.995Z,17.93
2022-10-06T11:15:41.282Z,18.35
2022-10-06T11:20:40.068Z,18.18
2022-10-06T11:25:39.915Z,18.20
2022-10-06T11:30:41.985Z,17.77
2022-10-06T11:35:39.704Z,17.84
2022-10-06T11:40:39.662Z,17.96
2022-10-06T11:45:39.665Z,17.79
2022-10-06T11:50:39.626Z,18.03
2022-10-06T11:55:39.500Z,18.41
2022-10-06T12:00:39.677Z,18.65
2022-10-06T12:05:56.666Z,18.50
2022-10-06T12:10:40.361Z,18.54
2022-10-06T12:20:40.368Z,18.51
2022-10-06T12:25:39.214Z,18.66
2022-10-06T12:30:39.106Z,18.50
2022-10-06T12:35:39.224Z,18.25
2022-10-06T12:40:40.300Z,18.17
2022-10-06T12:45:43.563Z,18.17
2022-10-06T12:50:39.918Z,18.05
2022-10-06T12:55:38.870Z,17.89
2022-10-06T13:00:38.887Z,18.14
2022-10-06T13:05:38.685Z,18.15
2022-10-06T13:10:38.762Z,17.87
2022-10-06T13:15:38.844Z,17.63
2022-10-06T13:20:38.564Z,17.59
2022-10-06T13:25:38.506Z,17.63
2022-10-06T13:30:39.024Z,17.37
2022-10-06T13:35:38.409Z,17.28
2022-10-06T13:40:44.625Z,17.19
2022-10-06T13:45:39.439Z,17.19
2022-10-06T13:50:38.179Z,17.15
2022-10-06T13:55:38.363Z,17.03
2022-10-06T14:00:38.147Z,16.94
2022-10-06T14:05:38.068Z,16.88
2022-10-06T14:10:39.029Z,16.88
2022-10-06T14:15:38.054Z,16.82
2022-10-06T14:20:39.250Z,16.79
2022-10-06T14:25:37.886Z,16.70
2022-10-06T14:30:37.792Z,16.67
2022-10-06T14:35:37.710Z,16.52
2022-10-06T14:40:37.787Z,16.53
2022-10-06T14:45:37.660Z,16.45
2022-10-06T14:50:37.553Z,16.46
2022-10-06T14:55:37.617Z,16.35
2022-10-06T15:00:37.594Z,16.24
2022-10-06T15:05:37.549Z,16.21
2022-10-06T15:10:37.399Z,16.11
2022-10-06T15:15:37.399Z,16.15
2022-10-06T15:20:37.309Z,16.07
2022-10-06T15:25:37.253Z,15.90
2022-10-06T15:44:04.752Z,15.62
2022-10-06T15:49:05.776Z,15.65
2022-10-06T15:54:06.524Z,15.56
2022-10-06T15:59:04.870Z,15.36
2022-10-06T16:07:09.409Z,15.16
2022-10-06T16:12:09.476Z,15.02
2022-10-06T16:17:09.602Z,14.89
2022-10-06T16:22:09.296Z,14.75
2022-10-06T16:27:09.144Z,14.65
2022-10-06T16:32:10.047Z,14.51
2022-10-06T16:37:09.027Z,14.35
2022-10-06T16:42:09.002Z,14.17
2022-10-06T16:47:10.070Z,14.03
2022-10-06T16:52:08.879Z,13.88
2022-10-06T16:57:08.815Z,13.69
2022-10-06T17:02:08.965Z,13.45
2022-10-06T17:07:12.018Z,13.22
2022-10-06T17:12:08.662Z,13.08
2022-10-06T17:17:08.655Z,12.96
2022-10-06T17:22:08.559Z,12.87
2022-10-06T17:27:08.486Z,12.74
2022-10-06T17:32:08.515Z,12.52
2022-10-06T17:37:08.461Z,12.34
2022-10-06T17:42:08.452Z,12.23
2022-10-06T17:47:08.377Z,12.13
2022-10-06T17:52:08.132Z,12.01
2022-10-06T17:57:11.720Z,11.85
2022-10-06T18:02:09.154Z,11.67
2022-10-06T18:07:08.037Z,11.58
2022-10-06T18:12:07.935Z,11.39
2022-10-06T18:17:08.013Z,11.17
2022-10-06T18:22:07.923Z,11.07
2022-10-06T18:27:08.156Z,10.96
2022-10-06T18:32:59.225Z,10.84
2022-10-06T18:37:09.852Z,10.67
2022-10-06T18:42:07.641Z,10.53
2022-10-06T18:47:07.558Z,10.44
2022-10-06T18:52:07.513Z,10.30
2022-10-06T18:57:10.860Z,10.23
2022-10-06T19:02:07.427Z,10.22
2022-10-06T19:07:08.380Z,10.12
2022-10-06T19:12:07.414Z,10.01
2022-10-06T19:17:07.364Z,9.90
2022-10-06T19:22:07.198Z,9.79
2022-10-06T19:27:07.185Z,9.72
2022-10-06T19:32:07.108Z,9.68
2022-10-06T19:37:07.039Z,9.58
2022-10-06T19:42:07.058Z,9.47
2022-10-06T19:47:06.977Z,9.48
2022-10-06T19:52:06.843Z,9.40
2022-10-06T19:57:06.887Z,9.39
2022-10-06T20:02:06.752Z,9.32
2022-10-06T20:07:06.788Z,9.28
2022-10-06T20:12:07.659Z,9.23
2022-10-06T20:17:06.668Z,9.17
2022-10-06T20:22:09.937Z,9.08
2022-10-06T20:27:06.499Z,8.98
2022-10-06T20:32:06.514Z,8.89
2022-10-06T20:37:06.464Z,8.81
2022-10-06T20:42:09.375Z,8.74
2022-10-06T20:47:07.313Z,8.74
2022-10-06T20:52:06.256Z,8.66
2022-10-06T20:57:06.238Z,8.58
2022-10-06T21:02:06.160Z,8.45
2022-10-06T21:07:06.195Z,8.38
2022-10-06T21:12:05.982Z,8.37
2022-10-06T21:17:05.941Z,8.29
2022-10-06T21:22:05.890Z,8.28
2022-10-06T21:27:05.855Z,8.26
2022-10-06T21:34:45.683Z,8.30
2022-10-06T21:39:45.562Z,8.19
2022-10-06T21:44:45.547Z,8.20
2022-10-06T21:49:45.646Z,8.18
2022-10-06T21:54:45.661Z,8.15
2022-10-06T21:59:45.350Z,8.05
2022-10-06T22:04:45.432Z,7.98
2022-10-06T22:09:45.245Z,7.93
2022-10-06T22:14:46.321Z,7.98
2022-10-06T22:19:45.210Z,7.97
2022-10-06T22:24:45.153Z,7.85
2022-10-06T22:29:45.044Z,7.79
2022-10-06T22:34:44.979Z,7.71
2022-10-06T22:39:44.966Z,7.64
2022-10-06T22:44:44.874Z,7.60
2022-10-06T22:49:44.882Z,7.64
2022-10-06T22:54:44.914Z,7.85
2022-10-06T22:59:44.696Z,7.90
2022-10-06T23:04:44.796Z,7.92
2022-10-06T23:09:44.726Z,8.00
2022-10-06T23:14:44.529Z,8.07
2022-10-06T23:19:44.471Z,8.07
2022-10-06T23:24:44.471Z,8.04
2022-10-06T23:29:44.365Z,8.07
2022-10-06T23:34:44.440Z,8.07
2022-10-06T23:39:44.334Z,8.08
2022-10-06T23:44:44.278Z,8.10
2022-10-06T23:49:46.255Z,8.07
2022-10-06T23:54:44.185Z,8.11
2022-10-06T23:59:44.023Z,8.19
